sensor_id;sensor_type;location;lat;lon;timestamp;pressure;altitude;pressure_sealevel;temperature;humidity
57192;BME280;43052;52.588;13.396;2023-05-14T00:01:42;101663.25;;;11.15;62.19
57192;BME280;43052;52.588;13.396;2023-05-14T00:04:08;101654.50;;;11.08;62.27
57192;BME280;43052;52.588;13.396;2023-05-14T00:06:33;101658.84;;;11.08;62.46
57192;BME280;43052;52.588;13.396;2023-05-14T00:08:58;101659.69;;;11.02;62.70
57192;BME280;43052;52.588;13.396;2023-05-14T00:11:23;101658.81;;;11.03;62.93
57192;BME280;43052;52.588;13.396;2023-05-14T00:13:49;101657.06;;;11.01;62.97
57192;BME280;43052;52.588;13.396;2023-05-14T00:16:14;101654.41;;;10.96;63.18
57192;BME280;43052;52.588;13.396;2023-05-14T00:18:40;101657.03;;;10.97;63.23
57192;BME280;43052;52.588;13.396;2023-05-14T00:21:05;101650.91;;;10.92;63.33
57192;BME280;43052;52.588;13.396;2023-05-14T00:23:31;101653.50;;;10.92;63.13
57192;BME280;43052;52.588;13.396;2023-05-14T00:35:45;101622.06;;;10.88;62.93
57192;BME280;43052;52.588;13.396;2023-05-14T00:38:12;101624.72;;;10.91;63.25
57192;BME280;43052;52.588;13.396;2023-05-14T00:40:48;101635.19;;;10.92;63.30
57192;BME280;43052;52.588;13.396;2023-05-14T00:43:22;101615.94;;;10.84;63.46
57192;BME280;43052;52.588;13.396;2023-05-14T00:45:51;101622.06;;;10.86;63.33
57192;BME280;43052;52.588;13.396;2023-05-14T00:48:18;101613.34;;;10.82;63.49
57192;BME280;43052;52.588;13.396;2023-05-14T00:50:44;101630.84;;;10.94;63.54
57192;BME280;43052;52.588;13.396;2023-05-14T00:53:09;101630.84;;;10.96;63.54
57192;BME280;43052;52.588;13.396;2023-05-14T00:55:36;101625.63;;;10.96;63.60
57192;BME280;43052;52.588;13.396;2023-05-14T00:58:04;101622.09;;;10.92;63.68
57192;BME280;43052;52.588;13.396;2023-05-14T01:00:34;101629.91;;;10.85;63.87
57192;BME280;43052;52.588;13.396;2023-05-14T01:03:00;101624.63;;;10.77;63.81
57192;BME280;43052;52.588;13.396;2023-05-14T01:05:32;101622.84;;;10.70;64.17
57192;BME280;43052;52.588;13.396;2023-05-14T01:08:24;101628.00;;;10.63;64.54
57192;BME280;43052;52.588;13.396;2023-05-14T01:10:56;101629.75;;;10.61;64.40
57192;BME280;43052;52.588;13.396;2023-05-14T01:13:45;101632.28;;;10.55;64.66
57192;BME280;43052;52.588;13.396;2023-05-14T01:16:17;101634.84;;;10.49;64.42
57192;BME280;43052;52.588;13.396;2023-05-14T01:18:43;101631.31;;;10.41;64.58
57192;BME280;43052;52.588;13.396;2023-05-14T01:21:23;101625.09;;;10.32;64.79
57192;BME280;43052;52.588;13.396;2023-05-14T01:23:48;101633.75;;;10.28;65.18
57192;BME280;43052;52.588;13.396;2023-05-14T01:26:13;101630.19;;;10.20;65.05
57192;BME280;43052;52.588;13.396;2023-05-14T01:28:39;101633.59;;;10.13;65.16
57192;BME280;43052;52.588;13.396;2023-05-14T01:31:11;101637.88;;;10.04;65.85
57192;BME280;43052;52.588;13.396;2023-05-14T01:33:41;101633.47;;;9.99;65.45
57192;BME280;43052;52.588;13.396;2023-05-14T01:36:07;101630.78;;;9.93;65.79
57192;BME280;43052;52.588;13.396;2023-05-14T01:38:34;101635.97;;;9.90;65.75
57192;BME280;43052;52.588;13.396;2023-05-14T01:41:00;101623.72;;;9.82;66.20
57192;BME280;43052;52.588;13.396;2023-05-14T01:43:26;101623.66;;;9.79;65.97
57192;BME280;43052;52.588;13.396;2023-05-14T01:45:52;101615.78;;;9.75;66.40
57192;BME280;43052;52.588;13.396;2023-05-14T01:48:19;101614.84;;;9.71;66.62
57192;BME280;43052;52.588;13.396;2023-05-14T01:50:44;101611.38;;;9.69;66.46
57192;BME280;43052;52.588;13.396;2023-05-14T01:53:09;101616.56;;;9.66;66.57
57192;BME280;43052;52.588;13.396;2023-05-14T01:55:35;101613.91;;;9.63;66.64
57192;BME280;43052;52.588;13.396;2023-05-14T01:58:00;101616.50;;;9.60;66.96
57192;BME280;43052;52.588;13.396;2023-05-14T02:00:25;101612.97;;;9.56;66.89
57192;BME280;43052;52.588;13.396;2023-05-14T02:02:51;101605.09;;;9.54;67.04
57192;BME280;43052;52.588;13.396;2023-05-14T02:05:16;101610.31;;;9.54;67.25
57192;BME280;43052;52.588;13.396;2023-05-14T02:07:42;101615.53;;;9.54;67.28
57192;BME280;43052;52.588;13.396;2023-05-14T02:10:07;101601.63;;;9.54;67.17
57192;BME280;43052;52.588;13.396;2023-05-14T02:12:33;101606.00;;;9.56;67.53
57192;BME280;43052;52.588;13.396;2023-05-14T02:14:58;101608.63;;;9.58;67.62
57192;BME280;43052;52.588;13.396;2023-05-14T02:17:24;101608.72;;;9.66;67.52
57192;BME280;43052;52.588;13.396;2023-05-14T02:19:50;101612.28;;;9.74;67.57
57192;BME280;43052;52.588;13.396;2023-05-14T02:22:15;101607.16;;;9.82;67.43
57192;BME280;43052;52.588;13.396;2023-05-14T02:24:40;101602.94;;;9.95;67.68
57192;BME280;43052;52.588;13.396;2023-05-14T02:27:06;101604.75;;;10.02;67.50
57192;BME280;43052;52.588;13.396;2023-05-14T02:29:31;101598.78;;;10.15;67.46
57192;BME280;43052;52.588;13.396;2023-05-14T02:31:56;101598.91;;;10.26;66.93
57192;BME280;43052;52.588;13.396;2023-05-14T02:34:22;101598.09;;;10.35;67.05
57192;BME280;43052;52.588;13.396;2023-05-14T02:36:47;101601.69;;;10.45;67.11
57192;BME280;43052;52.588;13.396;2023-05-14T02:39:12;101593.06;;;10.52;66.80
57192;BME280;43052;52.588;13.396;2023-05-14T02:41:37;101597.47;;;10.62;66.69
57192;BME280;43052;52.588;13.396;2023-05-14T02:44:03;101597.53;;;10.69;66.44
57192;BME280;43052;52.588;13.396;2023-05-14T02:46:29;101589.69;;;10.72;66.23
57192;BME280;43052;52.588;13.396;2023-05-14T02:48:55;101601.09;;;10.80;66.07
57192;BME280;43052;52.588;13.396;2023-05-14T02:51:20;101600.28;;;10.87;66.06
57192;BME280;43052;52.588;13.396;2023-05-14T02:53:46;101590.66;;;10.85;66.03
57192;BME280;43052;52.588;13.396;2023-05-14T02:56:12;101593.31;;;10.94;66.03
57192;BME280;43052;52.588;13.396;2023-05-14T02:58:37;101592.50;;;11.00;65.93
57192;BME280;43052;52.588;13.396;2023-05-14T03:01:02;101598.66;;;11.05;65.88
57192;BME280;43052;52.588;13.396;2023-05-14T03:03:29;101597.78;;;11.09;65.79
57192;BME280;43052;52.588;13.396;2023-05-14T03:05:54;101596.94;;;11.13;65.12
57192;BME280;43052;52.588;13.396;2023-05-14T03:08:19;101594.34;;;11.18;65.54
57192;BME280;43052;52.588;13.396;2023-05-14T03:10:45;101599.63;;;11.24;65.00
57192;BME280;43052;52.588;13.396;2023-05-14T03:13:10;101596.16;;;11.28;64.82
57192;BME280;43052;52.588;13.396;2023-05-14T03:15:35;101597.03;;;11.33;64.88
57192;BME280;43052;52.588;13.396;2023-05-14T03:18:01;101597.06;;;11.38;64.40
57192;BME280;43052;52.588;13.396;2023-05-14T03:20:26;101600.59;;;11.44;64.40
57192;BME280;43052;52.588;13.396;2023-05-14T03:22:51;101595.34;;;11.48;64.44
57192;BME280;43052;52.588;13.396;2023-05-14T03:25:16;101594.53;;;11.56;64.52
57192;BME280;43052;52.588;13.396;2023-05-14T03:27:42;101601.53;;;11.67;64.43
57192;BME280;43052;52.588;13.396;2023-05-14T03:30:07;101599.81;;;11.72;64.13
57192;BME280;43052;52.588;13.396;2023-05-14T03:32:33;101593.72;;;11.79;63.55
57192;BME280;43052;52.588;13.396;2023-05-14T03:34:58;101593.72;;;11.84;63.33
57192;BME280;43052;52.588;13.396;2023-05-14T03:37:23;101594.59;;;11.86;63.26
57192;BME280;43052;52.588;13.396;2023-05-14T03:39:48;101591.97;;;11.87;63.15
57192;BME280;43052;52.588;13.396;2023-05-14T03:42:14;101592.84;;;11.91;62.83
57192;BME280;43052;52.588;13.396;2023-05-14T03:44:39;101591.13;;;11.91;62.82
57192;BME280;43052;52.588;13.396;2023-05-14T03:47:04;101587.69;;;11.97;62.72
57192;BME280;43052;52.588;13.396;2023-05-14T03:49:30;101585.06;;;12.03;62.03
57192;BME280;43052;52.588;13.396;2023-05-14T03:51:55;101589.44;;;12.09;61.75
57192;BME280;43052;52.588;13.396;2023-05-14T03:54:22;101592.06;;;12.12;61.31
57192;BME280;43052;52.588;13.396;2023-05-14T03:56:47;101591.19;;;12.18;61.05
57192;BME280;43052;52.588;13.396;2023-05-14T03:59:12;101585.09;;;12.20;60.54
57192;BME280;43052;52.588;13.396;2023-05-14T04:01:37;101581.56;;;12.20;60.16
57192;BME280;43052;52.588;13.396;2023-05-14T04:04:03;101584.22;;;12.23;60.19
57192;BME280;43052;52.588;13.396;2023-05-14T04:06:28;101583.34;;;12.21;59.95
57192;BME280;43052;52.588;13.396;2023-05-14T04:08:53;101579.84;;;12.20;59.80
57192;BME280;43052;52.588;13.396;2023-05-14T04:11:18;101584.22;;;12.23;59.31
57192;BME280;43052;52.588;13.396;2023-05-14T04:13:45;101577.22;;;12.25;59.15
57192;BME280;43052;52.588;13.396;2023-05-14T04:16:10;101574.59;;;12.33;59.02
57192;BME280;43052;52.588;13.396;2023-05-14T04:18:35;101578.97;;;12.43;58.62
57192;BME280;43052;52.588;13.396;2023-05-14T04:21:01;101583.31;;;12.64;58.25
57192;BME280;43052;52.588;13.396;2023-05-14T04:23:27;101579.84;;;12.73;57.55
57192;BME280;43052;52.588;13.396;2023-05-14T04:25:52;101570.19;;;12.69;57.40
57192;BME280;43052;52.588;13.396;2023-05-14T04:28:17;101569.31;;;12.72;57.40
57192;BME280;43052;52.588;13.396;2023-05-14T04:30:43;101574.59;;;12.68;56.86
57192;BME280;43052;52.588;13.396;2023-05-14T04:33:08;101569.31;;;12.62;57.14
57192;BME280;43052;52.588;13.396;2023-05-14T04:35:34;101580.72;;;12.63;57.18
57192;BME280;43052;52.588;13.396;2023-05-14T04:37:59;101568.47;;;12.56;56.80
57192;BME280;43052;52.588;13.396;2023-05-14T04:40:24;101572.84;;;12.58;56.89
57192;BME280;43052;52.588;13.396;2023-05-14T04:42:50;101572.81;;;12.57;56.91
57192;BME280;43052;52.588;13.396;2023-05-14T04:45:15;101561.47;;;12.58;56.92
57192;BME280;43052;52.588;13.396;2023-05-14T04:47:41;101561.47;;;12.61;57.17
57192;BME280;43052;52.588;13.396;2023-05-14T04:50:06;101566.72;;;12.65;56.99
57192;BME280;43052;52.588;13.396;2023-05-14T04:52:33;101571.97;;;12.73;56.99
57192;BME280;43052;52.588;13.396;2023-05-14T04:54:59;101564.00;;;13.04;56.79
57192;BME280;43052;52.588;13.396;2023-05-14T04:57:24;101562.53;;;14.20;55.42
57192;BME280;43052;52.588;13.396;2023-05-14T04:59:49;101568.53;;;15.93;53.05
57192;BME280;43052;52.588;13.396;2023-05-14T05:02:15;101563.81;;;17.57;50.08
57192;BME280;43052;52.588;13.396;2023-05-14T05:04:40;101549.13;;;18.88;47.12
57192;BME280;43052;52.588;13.396;2023-05-14T05:07:05;101546.72;;;20.00;44.58
57192;BME280;43052;52.588;13.396;2023-05-14T05:09:36;101510.63;;;20.72;42.09
57192;BME280;43052;52.588;13.396;2023-05-14T05:12:02;101521.59;;;21.35;40.42
57192;BME280;43052;52.588;13.396;2023-05-14T05:14:27;101509.69;;;21.90;38.01
57192;BME280;43052;52.588;13.396;2023-05-14T05:16:55;101516.38;;;22.43;35.87
57192;BME280;43052;52.588;13.396;2023-05-14T05:19:20;101534.19;;;22.62;35.17
57192;BME280;43052;52.588;13.396;2023-05-14T05:22:06;101517.03;;;22.69;34.61
57192;BME280;43052;52.588;13.396;2023-05-14T05:24:35;101528.94;;;22.81;33.07
57192;BME280;43052;52.588;13.396;2023-05-14T05:27:00;101537.06;;;21.71;34.88
57192;BME280;43052;52.588;13.396;2023-05-14T05:29:39;101531.69;;;20.78;35.79
57192;BME280;43052;52.588;13.396;2023-05-14T05:32:07;101534.72;;;20.15;36.40
57192;BME280;43052;52.588;13.396;2023-05-14T05:34:33;101524.41;;;19.49;37.29
57192;BME280;43052;52.588;13.396;2023-05-14T05:37:04;101526.91;;;19.25;38.06
57192;BME280;43052;52.588;13.396;2023-05-14T05:39:38;101534.88;;;18.93;38.11
57192;BME280;43052;52.588;13.396;2023-05-14T05:42:12;101530.84;;;19.41;38.07
57192;BME280;43052;52.588;13.396;2023-05-14T05:44:37;101535.66;;;19.27;38.00
57192;BME280;43052;52.588;13.396;2023-05-14T05:47:08;101519.28;;;18.81;38.53
57192;BME280;43052;52.588;13.396;2023-05-14T05:49:34;101527.84;;;18.59;39.51
57192;BME280;43052;52.588;13.396;2023-05-14T05:52:00;101533.63;;;18.41;39.33
57192;BME280;43052;52.588;13.396;2023-05-14T05:54:26;101522.69;;;18.53;39.59
57192;BME280;43052;52.588;13.396;2023-05-14T05:56:51;101527.47;;;18.72;39.37
57192;BME280;43052;52.588;13.396;2023-05-14T05:59:16;101537.78;;;18.83;39.09
57192;BME280;43052;52.588;13.396;2023-05-14T06:01:45;101519.94;;;18.89;38.77
57192;BME280;43052;52.588;13.396;2023-05-14T06:04:10;101526.06;;;18.91;38.45
57192;BME280;43052;52.588;13.396;2023-05-14T06:06:35;101522.03;;;19.09;38.77
57192;BME280;43052;52.588;13.396;2023-05-14T06:09:00;101522.31;;;19.60;37.97
57192;BME280;43052;52.588;13.396;2023-05-14T06:11:26;101521.56;;;20.12;37.11
57192;BME280;43052;52.588;13.396;2023-05-14T06:13:51;101523.16;;;20.43;36.54
57192;BME280;43052;52.588;13.396;2023-05-14T06:16:16;101528.03;;;20.55;36.55
57192;BME280;43052;52.588;13.396;2023-05-14T06:18:42;101528.41;;;20.70;36.10
57192;BME280;43052;52.588;13.396;2023-05-14T06:21:07;101530.00;;;21.01;35.05
57192;BME280;43052;52.588;13.396;2023-05-14T06:23:32;101538.66;;;20.82;34.84
57192;BME280;43052;52.588;13.396;2023-05-14T06:25:58;101541.38;;;20.28;35.67
57192;BME280;43052;52.588;13.396;2023-05-14T06:28:23;101535.81;;;20.09;36.34
57192;BME280;43052;52.588;13.396;2023-05-14T06:30:49;101532.16;;;19.85;36.85
57192;BME280;43052;52.588;13.396;2023-05-14T06:33:14;101523.06;;;19.64;36.88
57192;BME280;43052;52.588;13.396;2023-05-14T06:35:39;101523.88;;;19.37;37.24
57192;BME280;43052;52.588;13.396;2023-05-14T06:38:05;101525.94;;;19.28;37.73
57192;BME280;43052;52.588;13.396;2023-05-14T06:40:30;101531.25;;;19.28;37.98
57192;BME280;43052;52.588;13.396;2023-05-14T06:42:56;101526.84;;;19.26;37.87
57192;BME280;43052;52.588;13.396;2023-05-14T06:45:21;101531.44;;;19.21;37.81
57192;BME280;43052;52.588;13.396;2023-05-14T06:47:46;101529.34;;;19.01;37.84
57192;BME280;43052;52.588;13.396;2023-05-14T06:50:11;101529.16;;;18.76;38.50
57192;BME280;43052;52.588;13.396;2023-05-14T06:52:37;101531.22;;;18.64;38.64
57192;BME280;43052;52.588;13.396;2023-05-14T06:55:02;101526.34;;;18.47;38.93
57192;BME280;43052;52.588;13.396;2023-05-14T06:57:27;101535.31;;;18.43;38.97
57192;BME280;43052;52.588;13.396;2023-05-14T06:59:52;101535.47;;;18.37;39.12
57192;BME280;43052;52.588;13.396;2023-05-14T07:02:18;101530.19;;;18.36;39.48
57192;BME280;43052;52.588;13.396;2023-05-14T07:04:43;101525.88;;;18.33;39.06
57192;BME280;43052;52.588;13.396;2023-05-14T07:07:08;101529.41;;;18.32;39.37
57192;BME280;43052;52.588;13.396;2023-05-14T07:09:37;101525.91;;;18.31;39.27
57192;BME280;43052;52.588;13.396;2023-05-14T07:12:03;101525.81;;;18.35;38.97
57192;BME280;43052;52.588;13.396;2023-05-14T07:14:28;101530.25;;;18.34;38.56
57192;BME280;43052;52.588;13.396;2023-05-14T07:16:53;101522.72;;;18.19;38.92
57192;BME280;43052;52.588;13.396;2023-05-14T07:19:18;101520.09;;;18.17;39.17
57192;BME280;43052;52.588;13.396;2023-05-14T07:21:44;101528.97;;;18.14;39.31
57192;BME280;43052;52.588;13.396;2023-05-14T07:24:09;101534.03;;;18.24;39.09
57192;BME280;43052;52.588;13.396;2023-05-14T07:26:34;101520.75;;;18.25;39.12
57192;BME280;43052;52.588;13.396;2023-05-14T07:28:59;101525.34;;;18.19;38.67
57192;BME280;43052;52.588;13.396;2023-05-14T07:31:25;101526.88;;;18.29;39.07
57192;BME280;43052;52.588;13.396;2023-05-14T07:33:50;101519.34;;;18.46;39.01
57192;BME280;43052;52.588;13.396;2023-05-14T07:36:15;101521.03;;;18.49;38.67
57192;BME280;43052;52.588;13.396;2023-05-14T07:38:41;101516.94;;;18.70;38.44
57192;BME280;43052;52.588;13.396;2023-05-14T07:41:06;101514.69;;;19.19;38.09
57192;BME280;43052;52.588;13.396;2023-05-14T07:43:31;101513.13;;;19.70;37.27
57192;BME280;43052;52.588;13.396;2023-05-14T07:45:57;101516.13;;;20.15;36.62
57192;BME280;43052;52.588;13.396;2023-05-14T07:48:22;101510.91;;;20.39;36.71
57192;BME280;43052;52.588;13.396;2023-05-14T07:50:48;101504.47;;;20.46;36.44
57192;BME280;43052;52.588;13.396;2023-05-14T07:53:13;101505.22;;;20.49;36.53
57192;BME280;43052;52.588;13.396;2023-05-14T07:55:38;101495.31;;;20.80;36.64
57192;BME280;43052;52.588;13.396;2023-05-14T07:58:04;101489.75;;;21.56;35.40
57192;BME280;43052;52.588;13.396;2023-05-14T08:00:29;101487.44;;;22.54;34.01
57192;BME280;43052;52.588;13.396;2023-05-14T08:02:54;101480.53;;;23.28;32.21
57192;BME280;43052;52.588;13.396;2023-05-14T08:05:20;101490.19;;;23.50;31.41
57192;BME280;43052;52.588;13.396;2023-05-14T08:07:45;101493.94;;;23.08;31.33
57192;BME280;43052;52.588;13.396;2023-05-14T08:10:10;101488.56;;;22.89;32.00
57192;BME280;43052;52.588;13.396;2023-05-14T08:12:36;101485.16;;;22.66;31.42
57192;BME280;43052;52.588;13.396;2023-05-14T08:15:01;101476.56;;;22.59;32.22
57192;BME280;43052;52.588;13.396;2023-05-14T08:17:27;101484.84;;;22.53;32.21
57192;BME280;43052;52.588;13.396;2023-05-14T08:19:52;101484.06;;;22.70;32.65
57192;BME280;43052;52.588;13.396;2023-05-14T08:22:18;101479.88;;;23.04;32.40
57192;BME280;43052;52.588;13.396;2023-05-14T08:24:44;101472.22;;;23.15;31.76
57192;BME280;43052;52.588;13.396;2023-05-14T08:27:09;101483.41;;;22.85;31.86
57192;BME280;43052;52.588;13.396;2023-05-14T08:29:34;101482.22;;;22.72;32.50
57192;BME280;43052;52.588;13.396;2023-05-14T08:32:00;101477.75;;;22.73;32.16
57192;BME280;43052;52.588;13.396;2023-05-14T08:34:25;101473.97;;;22.78;32.14
57192;BME280;43052;52.588;13.396;2023-05-14T08:36:54;101469.69;;;22.74;32.30
57192;BME280;43052;52.588;13.396;2023-05-14T08:39:20;101462.06;;;23.05;32.10
57192;BME280;43052;52.588;13.396;2023-05-14T08:41:45;101457.72;;;23.23;31.67
57192;BME280;43052;52.588;13.396;2023-05-14T08:44:17;101468.63;;;23.72;31.56
57192;BME280;43052;52.588;13.396;2023-05-14T08:46:43;101466.13;;;24.39;30.50
57192;BME280;43052;52.588;13.396;2023-05-14T08:49:34;101464.56;;;25.02;29.51
57192;BME280;43052;52.588;13.396;2023-05-14T08:52:02;101458.72;;;25.44;28.81
57192;BME280;43052;52.588;13.396;2023-05-14T08:54:28;101457.78;;;25.75;28.53
57192;BME280;43052;52.588;13.396;2023-05-14T08:56:56;101448.88;;;25.91;27.99
57192;BME280;43052;52.588;13.396;2023-05-14T08:59:21;101445.13;;;25.93;27.83
57192;BME280;43052;52.588;13.396;2023-05-14T09:01:47;101446.31;;;26.04;27.74
57192;BME280;43052;52.588;13.396;2023-05-14T09:04:19;101443.34;;;26.39;27.02
57192;BME280;43052;52.588;13.396;2023-05-14T09:06:50;101446.38;;;26.62;26.37
57192;BME280;43052;52.588;13.396;2023-05-14T09:09:17;101449.38;;;26.86;26.42
57192;BME280;43052;52.588;13.396;2023-05-14T09:11:46;101433.72;;;27.34;25.64
57192;BME280;43052;52.588;13.396;2023-05-14T09:14:11;101444.16;;;28.20;25.14
57192;BME280;43052;52.588;13.396;2023-05-14T09:16:37;101435.44;;;28.55;24.11
57192;BME280;43052;52.588;13.396;2023-05-14T09:19:04;101426.72;;;29.14;23.68
57192;BME280;43052;52.588;13.396;2023-05-14T09:21:30;101424.94;;;30.22;22.32
57192;BME280;43052;52.588;13.396;2023-05-14T09:23:56;101422.34;;;31.97;20.65
57192;BME280;43052;52.588;13.396;2023-05-14T09:26:26;101416.47;;;34.13;18.40
57192;BME280;43052;52.588;13.396;2023-05-14T09:29:00;101410.13;;;34.42;17.86
57192;BME280;43052;52.588;13.396;2023-05-14T09:31:29;101402.69;;;33.96;17.94
57192;BME280;43052;52.588;13.396;2023-05-14T09:33:55;101400.09;;;33.95;17.83
57192;BME280;43052;52.588;13.396;2023-05-14T09:36:22;101406.69;;;34.95;17.08
57192;BME280;43052;52.588;13.396;2023-05-14T09:38:47;101408.69;;;36.10;15.79
57192;BME280;43052;52.588;13.396;2023-05-14T09:41:12;101390.72;;;36.60;14.53
57192;BME280;43052;52.588;13.396;2023-05-14T09:43:37;101385.75;;;37.89;14.26
57192;BME280;43052;52.588;13.396;2023-05-14T09:46:03;101394.94;;;38.84;12.96
57192;BME280;43052;52.588;13.396;2023-05-14T09:48:28;101380.97;;;38.39;13.24
57192;BME280;43052;52.588;13.396;2023-05-14T09:50:53;101391.41;;;38.28;12.46
57192;BME280;43052;52.588;13.396;2023-05-14T09:53:19;101375.56;;;37.42;13.37
57192;BME280;43052;52.588;13.396;2023-05-14T09:55:44;101379.66;;;37.46;13.71
57192;BME280;43052;52.588;13.396;2023-05-14T09:58:10;101365.31;;;37.03;13.87
57192;BME280;43052;52.588;13.396;2023-05-14T10:00:36;101374.38;;;36.60;13.29
57192;BME280;43052;52.588;13.396;2023-05-14T10:03:06;101369.84;;;36.77;13.79
57192;BME280;43052;52.588;13.396;2023-05-14T10:05:34;101366.91;;;36.62;13.27
57192;BME280;43052;52.588;13.396;2023-05-14T10:08:02;101364.97;;;36.46;13.40
57192;BME280;43052;52.588;13.396;2023-05-14T10:10:29;101373.16;;;36.12;13.73
57192;BME280;43052;52.588;13.396;2023-05-14T10:12:57;101364.00;;;36.56;13.88
57192;BME280;43052;52.588;13.396;2023-05-14T10:15:36;101361.94;;;36.15;13.33
57192;BME280;43052;52.588;13.396;2023-05-14T10:18:09;101350.56;;;34.86;14.45
57192;BME280;43052;52.588;13.396;2023-05-14T10:20:35;101348.94;;;35.48;14.48
57192;BME280;43052;52.588;13.396;2023-05-14T10:23:02;101353.00;;;35.07;13.59
57192;BME280;43052;52.588;13.396;2023-05-14T10:25:27;101349.16;;;33.98;14.46
57192;BME280;43052;52.588;13.396;2023-05-14T10:27:53;101338.09;;;33.03;14.83
57192;BME280;43052;52.588;13.396;2023-05-14T10:30:20;101347.09;;;31.81;15.42
57192;BME280;43052;52.588;13.396;2023-05-14T10:32:47;101325.84;;;28.83;18.21
57192;BME280;43052;52.588;13.396;2023-05-14T10:35:19;101325.97;;;28.31;18.76
57192;BME280;43052;52.588;13.396;2023-05-14T10:37:50;101327.28;;;27.61;19.63
57192;BME280;43052;52.588;13.396;2023-05-14T10:40:26;101323.59;;;25.80;21.46
57192;BME280;43052;52.588;13.396;2023-05-14T10:43:12;101327.84;;;24.43;23.63
57192;BME280;43052;52.588;13.396;2023-05-14T10:45:42;101324.53;;;23.88;24.04
57192;BME280;43052;52.588;13.396;2023-05-14T10:48:09;101320.19;;;23.86;24.89
57192;BME280;43052;52.588;13.396;2023-05-14T10:50:34;101325.41;;;23.89;24.81
57192;BME280;43052;52.588;13.396;2023-05-14T10:52:59;101319.53;;;23.47;24.76
57192;BME280;43052;52.588;13.396;2023-05-14T10:55:30;101315.72;;;23.16;25.34
57192;BME280;43052;52.588;13.396;2023-05-14T10:57:57;101311.22;;;22.99;25.63
57192;BME280;43052;52.588;13.396;2023-05-14T11:00:46;101321.03;;;22.98;25.89
57192;BME280;43052;52.588;13.396;2023-05-14T11:03:12;101320.41;;;22.74;26.01
57192;BME280;43052;52.588;13.396;2023-05-14T11:05:39;101313.59;;;22.29;26.78
57192;BME280;43052;52.588;13.396;2023-05-14T11:08:06;101297.53;;;21.71;27.82
57192;BME280;43052;52.588;13.396;2023-05-14T11:10:32;101312.41;;;21.55;28.32
57192;BME280;43052;52.588;13.396;2023-05-14T11:12:58;101306.66;;;21.43;28.25
57192;BME280;43052;52.588;13.396;2023-05-14T11:15:24;101306.63;;;21.45;28.33
57192;BME280;43052;52.588;13.396;2023-05-14T11:17:53;101298.88;;;21.39;28.48
57192;BME280;43052;52.588;13.396;2023-05-14T11:20:19;101296.41;;;21.34;28.45
57192;BME280;43052;52.588;13.396;2023-05-14T11:22:46;101300.31;;;21.48;28.39
57192;BME280;43052;52.588;13.396;2023-05-14T11:25:12;101296.16;;;21.63;28.49
57192;BME280;43052;52.588;13.396;2023-05-14T11:27:39;101301.00;;;21.73;28.72
57192;BME280;43052;52.588;13.396;2023-05-14T11:30:25;101292.69;;;21.81;28.53
57192;BME280;43052;52.588;13.396;2023-05-14T11:32:51;101285.38;;;22.05;28.61
57192;BME280;43052;52.588;13.396;2023-05-14T11:35:16;101286.25;;;22.25;27.88
57192;BME280;43052;52.588;13.396;2023-05-14T11:37:42;101279.91;;;22.28;27.81
57192;BME280;43052;52.588;13.396;2023-05-14T11:40:17;101275.88;;;22.38;27.86
57192;BME280;43052;52.588;13.396;2023-05-14T11:42:43;101273.41;;;22.54;27.83
57192;BME280;43052;52.588;13.396;2023-05-14T11:45:12;101265.03;;;22.62;27.34
57192;BME280;43052;52.588;13.396;2023-05-14T11:47:40;101269.94;;;22.52;27.65
57192;BME280;43052;52.588;13.396;2023-05-14T11:50:06;101260.22;;;22.51;27.92
57192;BME280;43052;52.588;13.396;2023-05-14T11:52:36;101258.00;;;22.61;27.80
57192;BME280;43052;52.588;13.396;2023-05-14T11:55:03;101263.94;;;22.66;27.78
57192;BME280;43052;52.588;13.396;2023-05-14T11:57:29;101259.59;;;22.46;27.88
57192;BME280;43052;52.588;13.396;2023-05-14T11:59:55;101256.88;;;22.27;28.29
57192;BME280;43052;52.588;13.396;2023-05-14T12:02:30;101255.34;;;22.02;28.31
57192;BME280;43052;52.588;13.396;2023-05-14T12:04:56;101256.69;;;21.72;29.04
57192;BME280;43052;52.588;13.396;2023-05-14T12:07:21;101257.63;;;21.51;28.98
57192;BME280;43052;52.588;13.396;2023-05-14T12:09:47;101263.13;;;21.25;29.40
57192;BME280;43052;52.588;13.396;2023-05-14T12:12:17;101250.47;;;20.65;31.35
57192;BME280;43052;52.588;13.396;2023-05-14T12:14:43;101257.94;;;19.86;33.25
57192;BME280;43052;52.588;13.396;2023-05-14T12:17:20;101247.47;;;19.80;32.98
57192;BME280;43052;52.588;13.396;2023-05-14T12:19:48;101245.56;;;20.09;33.02
57192;BME280;43052;52.588;13.396;2023-05-14T12:22:19;101236.47;;;20.38;32.22
57192;BME280;43052;52.588;13.396;2023-05-14T12:24:52;101243.09;;;20.74;31.86
57192;BME280;43052;52.588;13.396;2023-05-14T12:27:21;101238.34;;;21.03;31.44
57192;BME280;43052;52.588;13.396;2023-05-14T12:29:47;101242.66;;;21.27;31.15
57192;BME280;43052;52.588;13.396;2023-05-14T12:32:13;101238.03;;;21.52;30.98
57192;BME280;43052;52.588;13.396;2023-05-14T12:34:58;101229.88;;;21.77;30.27
57192;BME280;43052;52.588;13.396;2023-05-14T12:37:23;101230.03;;;22.12;29.93
57192;BME280;43052;52.588;13.396;2023-05-14T12:39:48;101226.69;;;22.47;29.15
57192;BME280;43052;52.588;13.396;2023-05-14T12:42:14;101224.81;;;22.66;28.98
57192;BME280;43052;52.588;13.396;2023-05-14T12:44:40;101222.03;;;22.87;27.93
57192;BME280;43052;52.588;13.396;2023-05-14T12:47:11;101226.81;;;22.98;28.11
57192;BME280;43052;52.588;13.396;2023-05-14T12:49:36;101218.06;;;23.13;27.62